KOVE/OVE METAR and TAF weather

Enter ICAO airport designator
Station Type Date Time Source
KOVE METAR 2021/09/24 02:53 UTC NOAA

KOVE 240253Z AUTO 26003KT 9SM CLR 28/06 A2982 RMK AO2 SLP097 T02830061 55001 $


Station Type Date Time Source
KOVE Decoded METAR 2021/09/24 02:53 UTC NOAA

OROVILLE MUNICIPAL AIRPORT, CA, United States (KOVE) 39-30N 121-37W 58M
Sep 23, 2021 - 10:53 PM EDT / 2021.09.24 0253 UTC
Wind: from the W (260 degrees) at 3 MPH (3 KT):0
Visibility: 9 mile(s):0
Sky conditions: clear
Temperature: 82.9 F (28.3 C)
Dew Point: 43.0 F (6.1 C)
Relative Humidity: 24%
Pressure (altimeter): 29.82 in. Hg (1009 hPa)
Pressure tendency: 0.00 inches (0.1 hPa) lower than three hours ago
ob: KOVE 240253Z AUTO 26003KT 9SM CLR 28/06 A2982 RMK AO2 SLP097 T02830061 55001
cycle: 3

Station Type Date Time Source
KOVE TAF UTC NOAA

Error!

Example: see airport list